createdAt,value
2023-01-29T00:01:23.900Z,72.42
2023-01-29T00:03:53.391Z,72.75
2023-01-29T00:06:23.625Z,72.18
2023-01-29T00:08:52.883Z,72.34
2023-01-29T00:11:21.835Z,72.06
2023-01-29T00:13:51.145Z,72.07
2023-01-29T00:16:20.057Z,72.75
2023-01-29T00:18:50.867Z,72.79
2023-01-29T00:21:22.386Z,72.61
2023-01-29T00:23:52.600Z,72.79
2023-01-29T00:26:21.591Z,72.13
2023-01-29T00:28:51.252Z,72.07
2023-01-29T00:31:23.527Z,72.17
2023-01-29T00:33:55.008Z,72.39
2023-01-29T00:36:24.937Z,72.34
2023-01-29T00:38:58.812Z,72.15
2023-01-29T00:41:47.665Z,72.88
2023-01-29T00:44:35.740Z,72.94
2023-01-29T00:47:25.824Z,72.95
2023-01-29T00:49:56.498Z,72.88
2023-01-29T00:52:25.718Z,72.43
2023-01-29T00:54:56.249Z,72.66
2023-01-29T00:57:25.118Z,72.37
2023-01-29T00:59:56.447Z,72.22
2023-01-29T01:02:44.056Z,72.65
2023-01-29T01:05:18.896Z,73.26
2023-01-29T01:07:49.081Z,73.77
2023-01-29T01:10:21.042Z,73.85
2023-01-29T01:12:52.426Z,73.07
2023-01-29T01:15:22.379Z,73.39
2023-01-29T01:17:54.856Z,74.18
2023-01-29T01:20:27.370Z,74.54
2023-01-29T01:22:56.695Z,74.28
2023-01-29T01:25:27.313Z,73.92
2023-01-29T01:30:29.675Z,74.10
2023-01-29T01:32:58.983Z,74.11
2023-01-29T01:35:29.603Z,74.72
2023-01-29T01:37:58.340Z,74.96
2023-01-29T01:40:28.450Z,74.69
2023-01-29T01:42:59.274Z,74.96
2023-01-29T01:45:31.360Z,74.99
2023-01-29T01:48:05.498Z,74.68
2023-01-29T01:50:40.237Z,75.36
2023-01-29T01:53:12.582Z,74.95
2023-01-29T01:55:45.214Z,75.97
2023-01-29T01:58:19.490Z,75.84
2023-01-29T02:00:48.866Z,75.63
2023-01-29T02:03:36.029Z,76.17
2023-01-29T02:06:25.698Z,76.80
2023-01-29T02:09:16.489Z,76.79
2023-01-29T02:11:45.835Z,77.02
2023-01-29T02:14:14.813Z,77.52
2023-01-29T02:16:44.051Z,77.90
2023-01-29T02:19:18.201Z,78.62
2023-01-29T02:22:13.319Z,78.21
2023-01-29T02:25:14.320Z,78.70
2023-01-29T02:28:17.986Z,78.94
2023-01-29T02:30:54.379Z,78.79
2023-01-29T02:33:36.728Z,78.85
2023-01-29T02:36:14.673Z,78.92
2023-01-29T02:38:51.533Z,79.73
2023-01-29T02:41:30.070Z,78.85
2023-01-29T02:44:07.909Z,78.78
2023-01-29T02:46:47.307Z,79.19
2023-01-29T02:49:23.582Z,79.72
2023-01-29T02:52:00.403Z,79.79
2023-01-29T02:54:39.312Z,80.69
2023-01-29T02:57:16.259Z,80.97
2023-01-29T02:59:51.134Z,80.66
2023-01-29T03:02:28.989Z,80.08
2023-01-29T03:05:04.216Z,80.30
2023-01-29T03:07:45.892Z,81.08
2023-01-29T03:10:25.810Z,80.26
2023-01-29T03:12:59.758Z,80.82
2023-01-29T03:15:38.857Z,80.34
2023-01-29T03:18:45.913Z,80.25
2023-01-29T03:21:37.925Z,80.19
2023-01-29T03:24:27.683Z,81.41
2023-01-29T03:27:20.827Z,80.75
2023-01-29T03:30:11.819Z,81.67
2023-01-29T03:33:08.963Z,80.93
2023-01-29T03:35:47.585Z,81.31
2023-01-29T03:38:17.374Z,81.40
2023-01-29T03:40:52.044Z,81.49
2023-01-29T03:43:33.068Z,81.95
2023-01-29T03:46:08.452Z,81.66
2023-01-29T03:48:40.722Z,81.70
2023-01-29T03:51:23.362Z,81.81
2023-01-29T03:54:00.107Z,81.84
2023-01-29T03:56:40.304Z,82.60
2023-01-29T03:59:18.525Z,82.16
2023-01-29T04:02:11.160Z,83.11
2023-01-29T04:04:44.727Z,82.89
2023-01-29T04:07:23.792Z,83.02
2023-01-29T04:10:07.041Z,82.56
2023-01-29T04:12:43.281Z,82.69
2023-01-29T04:15:16.499Z,82.34
2023-01-29T04:17:51.686Z,82.99
2023-01-29T04:20:27.967Z,82.96
2023-01-29T04:22:58.486Z,82.51
2023-01-29T04:25:33.486Z,82.56
2023-01-29T04:28:12.503Z,82.65
2023-01-29T04:30:49.357Z,83.78
2023-01-29T04:33:30.310Z,83.26
2023-01-29T04:36:23.419Z,82.97
2023-01-29T04:39:03.714Z,83.75
2023-01-29T04:41:37.273Z,83.07
2023-01-29T04:44:12.495Z,83.58
2023-01-29T04:46:50.037Z,83.05
2023-01-29T04:49:30.556Z,82.74
2023-01-29T04:52:06.554Z,82.76
2023-01-29T04:54:52.484Z,83.67
2023-01-29T04:57:27.890Z,82.89
2023-01-29T05:00:03.892Z,82.79
2023-01-29T05:02:36.586Z,82.77
2023-01-29T05:05:06.967Z,83.53
2023-01-29T05:07:38.814Z,82.60
2023-01-29T05:10:12.501Z,83.50
2023-01-29T05:12:44.941Z,83.13
2023-01-29T05:15:19.155Z,83.64
2023-01-29T05:17:48.524Z,83.34
2023-01-29T05:20:18.186Z,82.70
2023-01-29T05:22:49.296Z,83.27
2023-01-29T05:25:26.721Z,82.97
2023-01-29T05:28:04.176Z,83.45
2023-01-29T05:30:35.243Z,83.11
2023-01-29T05:33:05.583Z,83.27
2023-01-29T05:35:34.845Z,83.26
2023-01-29T05:38:04.250Z,83.25
2023-01-29T05:40:34.822Z,82.62
2023-01-29T05:43:04.456Z,82.53
2023-01-29T05:45:33.650Z,83.28
2023-01-29T05:48:02.908Z,82.80
2023-01-29T05:50:31.873Z,83.16
2023-01-29T05:53:02.197Z,82.94
2023-01-29T05:55:31.205Z,83.77
2023-01-29T05:58:02.297Z,83.65
2023-01-29T06:00:32.221Z,83.66
2023-01-29T06:03:01.556Z,83.36
2023-01-29T06:05:30.500Z,83.76
2023-01-29T06:07:59.747Z,83.71
2023-01-29T06:10:28.699Z,82.98
2023-01-29T06:12:57.868Z,83.11
2023-01-29T06:15:28.593Z,83.77
2023-01-29T06:17:58.766Z,83.93
2023-01-29T06:20:27.708Z,83.31
2023-01-29T06:22:56.936Z,82.96
2023-01-29T06:25:25.829Z,83.76
2023-01-29T06:27:56.231Z,82.71
2023-01-29T06:30:28.401Z,82.79
2023-01-29T06:32:58.803Z,83.55
2023-01-29T06:35:27.903Z,83.18
2023-01-29T06:37:58.254Z,83.54
2023-01-29T06:40:27.192Z,83.06
2023-01-29T06:42:56.457Z,83.11
2023-01-29T06:45:25.436Z,82.97
2023-01-29T06:47:57.485Z,83.52
2023-01-29T06:50:27.402Z,83.53
2023-01-29T06:52:56.588Z,83.41
2023-01-29T06:55:25.494Z,83.36
2023-01-29T06:57:54.908Z,83.72
2023-01-29T07:00:23.970Z,83.39
2023-01-29T07:02:53.227Z,83.33
2023-01-29T07:05:23.551Z,82.78
2023-01-29T07:07:52.953Z,83.27
2023-01-29T07:10:22.328Z,83.68
2023-01-29T07:12:51.589Z,82.93
2023-01-29T07:15:21.388Z,83.52
2023-01-29T07:18:01.128Z,83.44
2023-01-29T07:20:32.154Z,83.17
2023-01-29T07:23:01.469Z,84.23
2023-01-29T07:25:31.027Z,84.20
2023-01-29T07:28:02.186Z,83.31
2023-01-29T07:30:31.166Z,83.84
2023-01-29T07:33:07.079Z,83.79
2023-01-29T07:35:40.412Z,83.76
2023-01-29T07:38:10.084Z,84.28
2023-01-29T07:40:39.030Z,83.67
2023-01-29T07:43:09.252Z,84.10
2023-01-29T07:45:40.227Z,84.42
2023-01-29T07:48:12.497Z,84.40
2023-01-29T07:50:44.087Z,83.54
2023-01-29T07:53:16.012Z,83.89
2023-01-29T07:55:46.240Z,84.61
2023-01-29T07:58:15.789Z,83.88
2023-01-29T08:00:44.808Z,83.99
2023-01-29T08:03:16.660Z,83.92
2023-01-29T08:05:47.378Z,84.59
2023-01-29T08:08:16.738Z,84.23
2023-01-29T08:10:45.601Z,84.29
2023-01-29T08:13:14.888Z,84.62
2023-01-29T08:15:46.139Z,84.06
2023-01-29T08:18:15.644Z,84.03
2023-01-29T08:20:46.008Z,83.71
2023-01-29T08:23:17.003Z,83.96
2023-01-29T08:25:46.100Z,83.77
2023-01-29T08:28:15.326Z,83.95
2023-01-29T08:30:44.932Z,84.40
2023-01-29T08:33:14.172Z,83.70
2023-01-29T08:35:43.102Z,84.19
2023-01-29T08:38:13.664Z,83.46
2023-01-29T08:40:42.548Z,83.30
2023-01-29T08:43:14.446Z,83.60
2023-01-29T08:45:44.927Z,84.04
2023-01-29T08:48:14.346Z,84.02
2023-01-29T08:50:43.228Z,84.12
2023-01-29T08:53:13.914Z,83.70
2023-01-29T08:55:42.790Z,84.18
2023-01-29T08:58:13.185Z,84.23
2023-01-29T09:00:42.197Z,83.75
2023-01-29T09:03:11.425Z,84.17
2023-01-29T09:05:41.612Z,83.70
2023-01-29T09:08:11.506Z,83.64
2023-01-29T09:10:42.068Z,83.82
2023-01-29T09:13:11.404Z,84.01
2023-01-29T09:15:40.324Z,83.61
2023-01-29T09:18:09.709Z,83.91
2023-01-29T09:20:38.980Z,83.78
2023-01-29T09:23:08.550Z,83.69
2023-01-29T09:25:37.942Z,83.66
2023-01-29T09:28:08.913Z,84.29
2023-01-29T09:30:38.552Z,83.98
2023-01-29T09:33:08.434Z,84.03
2023-01-29T09:35:37.543Z,83.57
2023-01-29T09:38:06.724Z,83.78
2023-01-29T09:40:42.507Z,83.58
2023-01-29T09:43:18.264Z,83.56
2023-01-29T09:45:55.206Z,83.67
2023-01-29T09:48:29.604Z,83.47
2023-01-29T09:51:02.861Z,83.47
2023-01-29T09:53:38.867Z,83.38
2023-01-29T09:56:14.031Z,83.94
2023-01-29T09:58:46.093Z,83.84
2023-01-29T10:01:20.484Z,83.71
2023-01-29T10:04:16.787Z,83.33
2023-01-29T10:07:00.370Z,83.25
2023-01-29T10:09:56.859Z,83.47
2023-01-29T10:12:45.109Z,83.81
2023-01-29T10:15:30.614Z,83.78
2023-01-29T10:18:18.296Z,83.48
2023-01-29T10:21:00.129Z,83.84
2023-01-29T10:23:34.599Z,83.21
2023-01-29T10:26:04.366Z,83.63
2023-01-29T10:28:38.169Z,83.63
2023-01-29T10:31:13.722Z,83.64
2023-01-29T10:34:01.516Z,83.30
2023-01-29T10:36:37.352Z,83.13
2023-01-29T10:39:06.372Z,83.47
2023-01-29T10:41:55.559Z,83.32
2023-01-29T10:44:37.854Z,83.76
2023-01-29T10:47:42.640Z,83.23
2023-01-29T10:50:42.184Z,83.55
2023-01-29T10:53:37.169Z,83.34
2023-01-29T10:56:23.122Z,83.24
2023-01-29T10:58:57.687Z,83.30
2023-01-29T11:01:28.068Z,82.94
2023-01-29T11:04:01.999Z,83.00
2023-01-29T11:06:33.289Z,83.23
2023-01-29T11:09:09.773Z,83.22
2023-01-29T11:11:45.516Z,83.51
2023-01-29T11:14:18.825Z,83.56
2023-01-29T11:16:50.002Z,83.48
2023-01-29T11:19:37.003Z,83.75
2023-01-29T11:22:09.420Z,83.50
2023-01-29T11:24:38.965Z,83.27
2023-01-29T11:27:17.429Z,83.36
2023-01-29T11:29:48.544Z,83.30
2023-01-29T11:32:28.018Z,83.70
2023-01-29T11:35:04.417Z,83.31
2023-01-29T11:37:36.733Z,83.07
2023-01-29T11:40:34.334Z,83.16
2023-01-29T11:43:19.088Z,82.96
2023-01-29T11:45:50.318Z,83.26
2023-01-29T11:48:22.956Z,83.14
2023-01-29T11:50:56.597Z,83.17
2023-01-29T11:53:38.664Z,82.75
2023-01-29T11:56:21.269Z,83.22
2023-01-29T11:58:52.800Z,82.98
2023-01-29T12:01:34.052Z,82.90
2023-01-29T12:04:04.639Z,82.97
2023-01-29T12:06:38.849Z,83.05
2023-01-29T12:09:16.842Z,83.13
2023-01-29T12:11:46.488Z,83.05
2023-01-29T12:14:30.000Z,83.24
2023-01-29T12:17:04.449Z,83.18
2023-01-29T12:19:40.847Z,83.14
2023-01-29T12:22:18.563Z,83.58
2023-01-29T12:24:54.015Z,83.40
2023-01-29T12:27:28.806Z,83.40
2023-01-29T12:30:05.023Z,83.59
2023-01-29T12:32:42.145Z,83.56
2023-01-29T12:35:18.480Z,83.56
2023-01-29T12:37:58.468Z,83.62
2023-01-29T12:40:32.282Z,83.88
2023-01-29T12:43:08.089Z,83.65
2023-01-29T12:45:38.788Z,84.15
2023-01-29T12:48:12.828Z,84.08
2023-01-29T12:50:42.175Z,84.05
2023-01-29T12:53:26.636Z,83.86
2023-01-29T12:56:00.787Z,83.94
2023-01-29T12:58:34.864Z,84.09
2023-01-29T13:01:10.871Z,83.89
2023-01-29T13:03:52.104Z,84.46
2023-01-29T13:06:27.372Z,84.24
2023-01-29T13:09:02.683Z,84.19
2023-01-29T13:11:39.273Z,83.89
2023-01-29T13:14:15.218Z,83.88
2023-01-29T13:16:49.414Z,83.78
2023-01-29T13:19:27.438Z,83.92
2023-01-29T13:21:58.668Z,83.70
2023-01-29T13:24:37.549Z,83.96
2023-01-29T13:27:07.122Z,83.65
2023-01-29T13:29:37.666Z,84.18
2023-01-29T13:32:09.931Z,83.92
2023-01-29T13:34:46.720Z,84.04
2023-01-29T13:37:28.246Z,83.67
2023-01-29T13:40:00.727Z,83.75
2023-01-29T13:42:41.478Z,83.87
2023-01-29T13:45:21.838Z,84.09
2023-01-29T13:47:53.117Z,84.18
2023-01-29T13:50:33.326Z,83.82
2023-01-29T13:53:05.351Z,83.89
2023-01-29T13:55:39.066Z,83.69
2023-01-29T13:58:10.013Z,83.77
2023-01-29T14:01:01.221Z,83.62
2023-01-29T14:04:03.886Z,83.87
2023-01-29T14:06:51.966Z,84.30
2023-01-29T14:10:02.524Z,84.06
2023-01-29T14:12:53.114Z,84.04
2023-01-29T14:15:32.218Z,84.22
2023-01-29T14:18:28.472Z,83.90
2023-01-29T14:21:04.935Z,84.09
2023-01-29T14:23:46.169Z,84.11
2023-01-29T14:26:24.412Z,84.51
2023-01-29T14:29:02.739Z,83.82
2023-01-29T14:31:44.428Z,83.68
2023-01-29T14:34:23.743Z,83.89
2023-01-29T14:36:56.365Z,83.97
2023-01-29T14:39:37.321Z,84.12
2023-01-29T14:42:24.033Z,83.84
2023-01-29T14:45:13.027Z,84.15
2023-01-29T14:48:05.489Z,84.25
2023-01-29T14:51:00.744Z,84.10
2023-01-29T14:53:47.599Z,84.09
2023-01-29T14:56:24.313Z,83.74
2023-01-29T14:58:59.215Z,83.88
2023-01-29T15:01:38.958Z,83.63
2023-01-29T15:04:19.409Z,83.87
2023-01-29T15:06:54.611Z,83.69
2023-01-29T15:09:37.330Z,83.93
2023-01-29T15:12:18.835Z,83.54
2023-01-29T15:14:59.783Z,83.63
2023-01-29T15:17:38.772Z,83.25
2023-01-29T15:20:33.802Z,83.59
2023-01-29T15:23:04.275Z,83.71
2023-01-29T15:25:37.609Z,83.50
2023-01-29T15:28:11.637Z,83.42
2023-01-29T15:30:43.239Z,83.78
2023-01-29T15:33:16.027Z,83.69
2023-01-29T15:35:45.381Z,83.54
2023-01-29T15:38:19.208Z,83.42
2023-01-29T15:40:56.651Z,83.40
2023-01-29T15:43:28.302Z,83.14
2023-01-29T15:46:26.858Z,83.30
2023-01-29T15:49:01.841Z,83.26
2023-01-29T15:51:31.221Z,83.19
2023-01-29T15:54:02.812Z,83.05
2023-01-29T15:56:36.070Z,83.43
2023-01-29T15:59:10.146Z,83.15
2023-01-29T16:01:39.235Z,82.96
2023-01-29T16:04:16.232Z,83.12
2023-01-29T16:06:46.201Z,83.64
2023-01-29T16:09:21.465Z,83.16
2023-01-29T16:11:51.455Z,83.53
2023-01-29T16:14:23.323Z,83.30
2023-01-29T16:16:52.593Z,82.99
2023-01-29T16:19:25.737Z,82.96
2023-01-29T16:22:01.351Z,82.88
2023-01-29T16:24:32.414Z,82.71
2023-01-29T16:27:03.205Z,83.17
2023-01-29T16:29:34.543Z,83.37
2023-01-29T16:32:06.233Z,83.46
2023-01-29T16:34:39.643Z,83.81
2023-01-29T16:37:19.048Z,83.54
2023-01-29T16:39:50.533Z,83.69
2023-01-29T16:42:28.100Z,83.72
2023-01-29T16:45:02.835Z,83.92
2023-01-29T16:47:36.189Z,84.07
2023-01-29T16:50:27.705Z,84.47
2023-01-29T16:52:58.886Z,84.02
2023-01-29T16:55:33.407Z,83.87
2023-01-29T16:58:06.686Z,84.46
2023-01-29T17:00:36.079Z,84.57
2023-01-29T17:03:08.514Z,84.36
2023-01-29T17:05:39.998Z,84.00
2023-01-29T17:08:15.455Z,84.44
2023-01-29T17:10:49.109Z,84.35
2023-01-29T17:13:25.009Z,84.59
2023-01-29T17:15:55.214Z,84.57
2023-01-29T17:18:27.179Z,85.00
2023-01-29T17:20:58.086Z,84.92
2023-01-29T17:23:27.160Z,84.36
2023-01-29T17:25:56.667Z,84.28
2023-01-29T17:28:26.432Z,84.86
2023-01-29T17:31:05.862Z,84.80
2023-01-29T17:33:36.823Z,84.92
2023-01-29T17:36:11.283Z,84.95
2023-01-29T17:38:40.855Z,84.82
2023-01-29T17:41:17.150Z,85.31
2023-01-29T17:43:46.421Z,85.20
2023-01-29T17:46:18.888Z,85.33
2023-01-29T17:48:49.465Z,85.43
2023-01-29T17:51:20.602Z,85.33
2023-01-29T17:53:49.695Z,85.41
2023-01-29T17:56:22.561Z,85.65
2023-01-29T17:58:51.751Z,85.66
2023-01-29T18:01:21.084Z,85.55
2023-01-29T18:03:50.274Z,85.99
2023-01-29T18:06:27.245Z,85.67
2023-01-29T18:08:56.811Z,85.44
2023-01-29T18:11:27.182Z,85.96
2023-01-29T18:13:56.744Z,85.52
2023-01-29T18:16:27.021Z,85.63
2023-01-29T18:18:56.057Z,85.88
2023-01-29T18:21:26.969Z,85.83
2023-01-29T18:23:56.668Z,85.86
2023-01-29T18:26:25.903Z,85.76
2023-01-29T18:28:54.914Z,85.91
2023-01-29T18:31:24.447Z,85.67
2023-01-29T18:33:53.621Z,86.04
2023-01-29T18:36:23.011Z,85.59
2023-01-29T18:38:53.548Z,85.32
2023-01-29T18:41:23.480Z,85.51
2023-01-29T18:43:52.944Z,85.75
2023-01-29T18:46:24.328Z,86.05
2023-01-29T18:48:53.565Z,85.83
2023-01-29T18:51:23.361Z,85.83
2023-01-29T18:53:54.361Z,85.62
2023-01-29T18:56:23.911Z,85.57
2023-01-29T18:58:56.575Z,85.91
2023-01-29T19:01:27.291Z,85.54
2023-01-29T19:03:59.253Z,85.80
2023-01-29T19:06:28.752Z,85.65
2023-01-29T19:08:59.543Z,85.65
2023-01-29T19:11:28.895Z,86.08
2023-01-29T19:13:57.838Z,85.66
2023-01-29T19:16:28.459Z,86.02
2023-01-29T19:18:59.154Z,85.82
2023-01-29T19:21:30.479Z,85.91
2023-01-29T19:24:00.989Z,85.98
2023-01-29T19:26:34.135Z,86.43
2023-01-29T19:29:03.493Z,85.85
2023-01-29T19:31:33.036Z,86.29
2023-01-29T19:34:02.322Z,86.45
2023-01-29T19:36:31.771Z,86.22
2023-01-29T19:39:02.319Z,86.49
2023-01-29T19:41:31.697Z,86.19
2023-01-29T19:44:00.672Z,86.61
2023-01-29T19:46:30.400Z,86.01
2023-01-29T19:48:59.520Z,86.12
2023-01-29T19:51:29.323Z,86.14
2023-01-29T19:53:58.712Z,86.03
2023-01-29T19:56:29.804Z,86.06
2023-01-29T19:58:58.853Z,86.50
2023-01-29T20:01:29.730Z,85.88
2023-01-29T20:03:59.428Z,86.17
2023-01-29T20:06:32.113Z,86.26
2023-01-29T20:09:03.219Z,85.95
2023-01-29T20:11:38.039Z,86.70
2023-01-29T20:14:08.168Z,86.38
2023-01-29T20:16:38.629Z,86.37
2023-01-29T20:19:13.977Z,86.34
2023-01-29T20:21:49.108Z,86.65
2023-01-29T20:24:18.501Z,86.40
2023-01-29T20:26:49.369Z,86.14
2023-01-29T20:29:18.638Z,86.39
2023-01-29T20:31:48.257Z,86.49
2023-01-29T20:34:17.924Z,86.01
2023-01-29T20:36:47.630Z,85.97
2023-01-29T20:39:17.266Z,86.08
2023-01-29T20:41:48.594Z,86.25
2023-01-29T20:44:18.076Z,86.32
2023-01-29T20:46:47.896Z,85.80
2023-01-29T20:49:17.353Z,85.73
2023-01-29T20:51:47.162Z,85.83
2023-01-29T20:54:16.382Z,85.92
2023-01-29T20:56:47.400Z,86.00
2023-01-29T20:59:18.942Z,85.92
2023-01-29T21:01:48.931Z,85.68
2023-01-29T21:04:18.863Z,85.62
2023-01-29T21:06:48.339Z,86.08
2023-01-29T21:09:17.819Z,85.78
2023-01-29T21:11:48.480Z,85.39
2023-01-29T21:14:18.736Z,85.70
2023-01-29T21:16:48.089Z,85.79
2023-01-29T21:19:17.159Z,85.63
2023-01-29T21:21:46.817Z,85.79
2023-01-29T21:24:18.911Z,85.79
2023-01-29T21:26:48.603Z,85.68
2023-01-29T21:29:19.138Z,85.81
2023-01-29T21:31:48.640Z,85.75
2023-01-29T21:34:17.735Z,86.15
2023-01-29T21:36:47.471Z,86.10
2023-01-29T21:39:20.991Z,86.07
2023-01-29T21:42:09.240Z,86.15
2023-01-29T21:44:39.901Z,86.25
2023-01-29T21:47:13.361Z,86.18
2023-01-29T21:49:43.298Z,85.71
2023-01-29T21:52:14.355Z,86.01
2023-01-29T21:54:48.981Z,86.16
2023-01-29T21:57:18.521Z,86.26
2023-01-29T21:59:52.927Z,85.90
2023-01-29T22:02:26.280Z,85.73
2023-01-29T22:05:05.313Z,86.23
2023-01-29T22:07:45.707Z,85.71
2023-01-29T22:10:15.663Z,86.12
2023-01-29T22:12:45.648Z,86.10
2023-01-29T22:15:16.743Z,85.87
2023-01-29T22:17:46.076Z,85.92
2023-01-29T22:20:16.439Z,85.81
2023-01-29T22:22:46.201Z,86.07
2023-01-29T22:25:19.913Z,86.08
2023-01-29T22:27:49.327Z,85.86
2023-01-29T22:30:20.482Z,85.88
2023-01-29T22:32:50.189Z,85.92
2023-01-29T22:35:19.205Z,85.75
2023-01-29T22:37:49.306Z,86.45
2023-01-29T22:40:18.903Z,86.01
2023-01-29T22:42:48.396Z,86.25
2023-01-29T22:45:18.759Z,86.13
2023-01-29T22:47:48.036Z,86.18
2023-01-29T22:50:17.373Z,85.69
2023-01-29T22:52:54.166Z,85.98
2023-01-29T22:55:23.281Z,86.32
2023-01-29T22:57:53.554Z,85.86
2023-01-29T23:00:24.219Z,86.20
2023-01-29T23:02:53.665Z,85.85
2023-01-29T23:05:22.557Z,86.10
2023-01-29T23:07:51.969Z,86.02
2023-01-29T23:10:20.992Z,85.66
2023-01-29T23:12:50.256Z,85.91
2023-01-29T23:15:19.163Z,85.96
2023-01-29T23:17:49.761Z,85.49
2023-01-29T23:20:20.656Z,86.00
2023-01-29T23:22:50.492Z,86.03
2023-01-29T23:25:19.649Z,85.86
2023-01-29T23:27:48.128Z,85.56
2023-01-29T23:30:17.520Z,85.76
2023-01-29T23:32:49.064Z,85.90
2023-01-29T23:35:18.184Z,86.00
2023-01-29T23:37:47.359Z,85.60
2023-01-29T23:40:17.084Z,86.14
2023-01-29T23:42:48.874Z,86.24
2023-01-29T23:45:17.983Z,86.24
2023-01-29T23:47:48.541Z,86.13
2023-01-29T23:50:18.569Z,85.71
2023-01-29T23:52:48.072Z,86.08
2023-01-29T23:55:17.235Z,86.42
2023-01-29T23:57:46.470Z,86.35
